Time;durP1;ratioP1;P1;durP2;ratioP2;P2;SDS_P1;SDS_P2;PMS_P1;PMS_P2;Temp;Humidity;BMP_temperature;BMP_pressure;BME280_temperature;BME280_humidity;BME280_pressure;Samples;Min_cycle;Max_cycle;Signal;HPM_P1;HPM_P2
2021/03/14 06:32:14;;;;;;;38.00;25.02;;;;;;;9.09;64.01;98814.78;4920986;29;20054;-81
2021/03/14 06:52:30;;;;;;;39.85;27.20;;;;;;;10.00;61.39;98805.78;4923550;29;20046;-88
2021/03/14 06:55:33;;;;;;;42.15;26.60;;;;;;;10.08;62.19;98812.41;4875456;29;20070;-88
2021/03/14 06:58:50;;;;;;;41.78;26.30;;;;;;;10.24;61.34;98808.53;4902551;29;20475;-88
2021/03/14 07:01:39;;;;;;;44.42;26.50;;;;;;;10.43;61.20;98815.91;4906080;29;20036;-90
2021/03/14 07:04:07;;;;;;;49.58;32.55;;;;;;;10.61;60.54;98806.41;4925290;29;20048;-93
2021/03/14 07:07:19;;;;;;;46.72;28.83;;;;;;;10.79;60.90;98804.88;4886190;29;20032;-95
2021/03/14 07:10:39;;;;;;;37.92;25.75;;;;;;;10.95;60.04;98807.38;4927188;29;20051;-96
2021/03/14 07:13:09;;;;;;;48.63;27.00;;;;;;;10.96;59.91;98796.41;4882965;29;20060;-90
2021/03/14 07:15:49;;;;;;;46.53;27.17;;;;;;;11.01;60.20;98807.06;4909414;29;20036;-88
2021/03/14 07:18:14;;;;;;;41.92;26.17;;;;;;;10.99;60.35;98795.84;4895699;29;20489;-92
2021/03/14 07:20:40;;;;;;;45.75;28.63;;;;;;;11.11;59.61;98810.69;4888769;29;20043;-87
2021/03/14 07:23:48;;;;;;;47.40;30.15;;;;;;;11.20;60.80;98806.31;4915824;29;20035;-90
2021/03/14 07:26:41;;;;;;;41.60;27.55;;;;;;;11.30;59.91;98805.41;4916262;29;20032;-95
2021/03/14 07:29:08;;;;;;;32.55;21.52;;;;;;;11.34;60.61;98798.41;4901812;29;20893;-90
2021/03/14 07:31:35;;;;;;;32.08;20.73;;;;;;;11.29;60.40;98793.91;4881766;29;20064;-92
2021/03/14 07:34:47;;;;;;;31.70;21.92;;;;;;;11.15;60.73;98793.00;4888687;29;20151;-95
2021/03/14 07:37:33;;;;;;;31.45;20.90;;;;;;;11.00;60.78;98802.00;4905798;29;20032;-93
2021/03/14 07:40:32;;;;;;;31.40;20.80;;;;;;;10.82;61.74;98798.19;4882032;29;20128;-90
2021/03/14 07:43:02;;;;;;;34.30;21.77;;;;;;;10.71;62.10;98790.25;4900152;29;20039;-83
2021/03/14 07:48:41;;;;;;;34.97;21.17;;;;;;;10.41;62.52;98791.31;4920869;29;20043;-92
2021/03/14 07:54:38;;;;;;;33.80;20.67;;;;;;;10.05;62.41;98784.38;5070605;23;20067;-84
2021/03/14 07:57:27;;;;;;;36.97;21.25;;;;;;;9.94;62.92;98777.50;4902746;29;20142;-81
2021/03/14 08:06:53;;;;;;;35.30;21.52;;;;;;;9.78;63.93;98784.81;4933989;28;20088;-84
2021/03/14 08:09:50;;;;;;;29.95;19.67;;;;;;;9.85;64.13;98781.84;4899263;29;20052;-82
2021/03/14 08:13:10;;;;;;;36.20;20.70;;;;;;;9.87;64.30;98779.69;4905897;29;20031;-85
2021/03/14 08:31:54;;;;;;;30.70;20.25;;;;;;;10.44;62.70;98760.59;4875303;29;20040;-87
2021/03/14 08:37:41;;;;;;;32.92;21.88;;;;;;;10.64;62.36;98748.88;4875968;29;20581;-88
2021/03/14 08:40:07;;;;;;;30.77;20.13;;;;;;;10.76;63.40;98743.91;4860210;29;20041;-86
2021/03/14 08:42:55;;;;;;;37.00;21.80;;;;;;;10.88;61.77;98741.63;4860292;29;20037;-87
2021/03/14 08:45:25;;;;;;;36.08;21.65;;;;;;;10.93;62.15;98731.97;4878557;29;20505;-86
2021/03/14 08:47:52;;;;;;;32.70;21.63;;;;;;;10.96;62.09;98729.53;4897420;29;20036;-87
2021/03/14 08:50:18;;;;;;;35.08;21.23;;;;;;;11.07;62.21;98716.00;4897347;29;20036;-86
2021/03/14 08:52:43;;;;;;;29.02;20.45;;;;;;;11.20;61.81;98724.16;4897655;29;20044;-86
2021/03/14 08:55:09;;;;;;;30.98;19.40;;;;;;;11.31;62.21;98730.13;4898591;29;20507;-86
2021/03/14 08:57:35;;;;;;;32.40;22.48;;;;;;;11.37;60.74;98717.50;4898768;29;20511;-86
2021/03/14 09:00:02;;;;;;;30.25;19.77;;;;;;;11.49;60.83;98717.84;4898418;29;20024;-86
2021/03/14 09:02:33;;;;;;;35.08;20.40;;;;;;;11.60;61.01;98715.03;4898363;29;20175;-86
2021/03/14 09:05:12;;;;;;;32.38;20.35;;;;;;;11.79;60.45;98718.50;4898325;29;20039;-86
2021/03/14 09:07:38;;;;;;;32.03;20.85;;;;;;;11.87;59.77;98717.03;4915270;29;20035;-86
2021/03/14 09:10:11;;;;;;;29.33;20.20;;;;;;;11.88;60.19;98704.41;4915348;29;20035;-86
2021/03/14 09:12:37;;;;;;;26.58;19.45;;;;;;;11.89;59.66;98708.69;4898357;29;20066;-86
2021/03/14 09:15:10;;;;;;;33.95;21.30;;;;;;;11.88;58.71;98696.38;4898218;29;20080;-85
2021/03/14 09:17:40;;;;;;;30.15;20.33;;;;;;;11.85;59.88;98695.06;4898392;29;20541;-86
2021/03/14 09:20:07;;;;;;;31.20;20.48;;;;;;;11.84;59.63;98688.94;4897943;29;20028;-86
2021/03/14 09:22:33;;;;;;;32.17;20.80;;;;;;;11.83;60.19;98694.59;4898243;29;20032;-86
2021/03/14 09:25:09;;;;;;;32.38;21.27;;;;;;;11.79;60.49;98683.66;4897783;29;20020;-88
2021/03/14 09:27:43;;;;;;;33.72;22.48;;;;;;;11.83;61.20;98684.66;4898285;29;20123;-88
2021/03/14 09:30:14;;;;;;;33.78;21.45;;;;;;;11.82;60.94;98676.94;4897646;29;20059;-88
2021/03/14 09:32:46;;;;;;;36.03;23.05;;;;;;;11.82;61.14;98672.34;4897748;29;20507;-87
2021/03/14 09:35:28;;;;;;;36.67;22.35;;;;;;;11.81;60.94;98665.41;4897832;29;20492;-87
2021/03/14 09:37:58;;;;;;;36.33;22.45;;;;;;;11.91;61.11;98669.00;4897906;29;20044;-88
2021/03/14 09:40:25;;;;;;;29.67;20.83;;;;;;;12.02;60.89;98667.75;4898100;29;20070;-87
2021/03/14 09:43:02;;;;;;;39.70;23.00;;;;;;;12.09;60.70;98662.03;4898520;29;20063;-87
2021/03/14 09:45:28;;;;;;;39.55;22.30;;;;;;;12.15;60.59;98661.63;4898034;29;20035;-87
2021/03/14 09:48:05;;;;;;;37.20;23.20;;;;;;;12.26;60.76;98659.56;4897891;29;20032;-87
2021/03/14 09:50:34;;;;;;;35.60;21.92;;;;;;;12.36;60.05;98649.75;4898377;29;20028;-87
2021/03/14 09:53:01;;;;;;;34.38;21.05;;;;;;;12.49;59.59;98648.97;4897589;29;20520;-87
2021/03/14 09:55:29;;;;;;;32.13;22.33;;;;;;;12.54;58.99;98645.41;4898170;29;20123;-86
2021/03/14 09:57:55;;;;;;;32.05;20.77;;;;;;;12.65;59.45;98647.56;4897611;29;20042;-86
2021/03/14 10:00:25;;;;;;;37.20;22.58;;;;;;;12.71;58.27;98642.09;4897821;29;20028;-86
2021/03/14 10:02:51;;;;;;;33.78;21.35;;;;;;;12.73;58.34;98631.84;4897859;29;20040;-86
2021/03/14 10:05:17;;;;;;;35.42;22.08;;;;;;;12.71;58.35;98623.31;4897658;29;20110;-86
2021/03/14 10:07:43;;;;;;;34.00;23.85;;;;;;;12.73;58.63;98621.94;4897782;29;20452;-86
2021/03/14 10:10:11;;;;;;;36.30;23.42;;;;;;;12.76;58.09;98618.63;4897691;29;20131;-88
2021/03/14 10:12:37;;;;;;;;;;;;;;;12.76;58.49;98615.94;4898075;29;20024;-87
2021/03/14 10:15:05;;;;;;;32.20;23.35;;;;;;;12.77;58.66;98617.53;4897450;29;19915;-87
2021/03/14 10:17:31;;;;;;;35.67;24.10;;;;;;;12.77;58.63;98604.13;4897689;29;20564;-87
2021/03/14 10:19:57;;;;;;;43.05;25.85;;;;;;;12.81;59.06;98597.03;4897299;29;20039;-86
2021/03/14 10:22:32;;;;;;;34.63;23.70;;;;;;;12.87;58.54;98592.38;4897684;29;20071;-86
2021/03/14 10:24:59;;;;;;;33.13;23.33;;;;;;;12.90;59.29;98599.03;4897351;29;20134;-85
2021/03/14 10:27:26;;;;;;;38.92;24.73;;;;;;;12.97;58.76;98588.66;4897705;29;20028;-85
2021/03/14 10:29:57;;;;;;;33.60;21.73;;;;;;;13.02;58.49;98595.81;4897606;29;20035;-84
2021/03/14 10:32:28;;;;;;;33.47;23.17;;;;;;;13.02;59.38;98582.41;4897528;29;20492;-87
2021/03/14 10:34:57;;;;;;;34.35;22.38;;;;;;;13.07;59.18;98577.72;4897263;29;20039;-87
2021/03/14 10:37:31;;;;;;;33.80;22.42;;;;;;;13.17;59.28;98570.50;4897424;29;20032;-86
2021/03/14 10:40:19;;;;;;;34.72;21.88;;;;;;;13.25;59.96;98567.88;4897331;29;20031;-87
2021/03/14 10:42:49;;;;;;;37.88;24.67;;;;;;;13.29;60.16;98563.50;4899056;29;20043;-87
2021/03/14 10:45:23;;;;;;;29.45;20.50;;;;;;;13.36;60.02;98548.84;4900963;29;20054;-87
2021/03/14 10:48:03;;;;;;;30.10;20.50;;;;;;;13.42;59.82;98547.66;4901028;29;20122;-86
2021/03/14 10:50:31;;;;;;;27.65;18.70;;;;;;;13.45;60.22;98541.66;4917887;29;20083;-88
2021/03/14 10:53:13;;;;;;;26.07;17.00;;;;;;;13.53;59.92;98540.13;4900402;29;20063;-87
2021/03/14 10:55:40;;;;;;;21.27;14.15;;;;;;;13.60;59.70;98533.22;4900913;29;20264;-86
2021/03/14 10:58:19;;;;;;;22.27;14.68;;;;;;;13.68;59.94;98523.59;4900745;29;20040;-86
2021/03/14 11:00:46;;;;;;;23.02;16.20;;;;;;;13.77;59.89;98520.97;4900565;29;20456;-87
2021/03/14 11:03:31;;;;;;;23.02;17.08;;;;;;;13.84;60.20;98518.63;4900554;29;20032;-86
2021/03/14 11:06:28;;;;;;;18.67;13.25;;;;;;;13.87;59.62;98501.88;4900659;29;20437;-87
2021/03/14 11:09:04;;;;;;;21.50;13.77;;;;;;;13.96;60.07;98509.16;4896688;29;20047;-86
2021/03/14 11:11:39;;;;;;;23.08;13.98;;;;;;;13.96;59.80;98493.03;4900661;29;20500;-87
2021/03/14 11:14:47;;;;;;;21.98;16.45;;;;;;;14.08;59.87;98496.69;4900602;29;20028;-86
2021/03/14 11:17:18;;;;;;;23.83;16.25;;;;;;;14.08;60.38;98502.06;4880345;29;20131;-87
2021/03/14 11:19:49;;;;;;;23.33;16.17;;;;;;;14.11;60.20;98497.19;4880350;29;20109;-86
2021/03/14 11:22:19;;;;;;;24.13;16.77;;;;;;;14.08;60.67;98483.25;4891456;29;20048;-87
2021/03/14 11:24:46;;;;;;;17.90;14.15;;;;;;;14.11;60.29;98486.44;4900405;29;20400;-87
2021/03/14 11:27:13;;;;;;;16.77;13.70;;;;;;;14.15;60.46;98487.41;4900036;29;20036;-86
2021/03/14 11:29:39;;;;;;;17.45;13.10;;;;;;;14.20;60.87;98482.66;4900290;29;20492;-86
2021/03/14 11:32:06;;;;;;;16.88;12.25;;;;;;;14.30;60.24;98473.50;4900349;29;20040;-86
2021/03/14 11:34:32;;;;;;;18.77;12.52;;;;;;;14.40;60.39;98475.91;4900298;29;20087;-87
2021/03/14 11:36:57;;;;;;;20.83;14.85;;;;;;;14.46;60.35;98468.44;4900484;29;20032;-85
2021/03/14 11:39:23;;;;;;;17.88;14.23;;;;;;;14.40;60.53;98462.44;4900121;29;20120;-87
2021/03/14 11:41:48;;;;;;;18.35;13.88;;;;;;;14.46;60.86;98468.44;4900235;29;20036;-85
2021/03/14 11:44:14;;;;;;;20.45;13.43;;;;;;;14.47;61.09;98469.25;4900005;29;20029;-85
2021/03/14 11:46:41;;;;;;;16.30;12.65;;;;;;;14.39;60.94;98457.34;4900071;29;20032;-85
2021/03/14 11:49:07;;;;;;;15.95;12.30;;;;;;;14.35;61.54;98459.09;4899978;29;20028;-85
2021/03/14 11:51:32;;;;;;;17.20;12.23;;;;;;;14.38;61.83;98453.13;4917386;29;20040;-85
2021/03/14 11:54:01;;;;;;;15.15;10.95;;;;;;;14.32;61.42;98436.31;4899192;29;20051;-85
2021/03/14 11:56:27;;;;;;;13.18;10.27;;;;;;;14.38;62.10;98435.06;4899780;29;20035;-86
2021/03/14 11:58:53;;;;;;;13.25;10.82;;;;;;;14.44;61.89;98435.72;4899904;29;20411;-87
2021/03/14 12:01:19;;;;;;;16.48;11.20;;;;;;;14.51;62.24;98437.91;4899609;29;20115;-88
2021/03/14 12:03:46;;;;;;;18.50;12.80;;;;;;;14.50;62.38;98428.25;4899806;29;20060;-87
2021/03/14 12:06:13;;;;;;;19.60;11.98;;;;;;;14.53;62.38;98424.94;4899768;29;20103;-87
2021/03/14 12:08:38;;;;;;;15.40;11.75;;;;;;;14.58;62.23;98422.84;4916586;29;20040;-85
2021/03/14 12:11:06;;;;;;;17.13;11.90;;;;;;;14.65;61.74;98421.63;4899351;29;20028;-85
2021/03/14 12:13:33;;;;;;;16.55;11.20;;;;;;;14.75;62.77;98412.44;4900002;29;20032;-86
2021/03/14 12:16:00;;;;;;;18.33;11.85;;;;;;;14.84;61.87;98413.22;4898980;29;20040;-85
2021/03/14 12:18:26;;;;;;;16.42;12.82;;;;;;;14.87;61.62;98409.88;4898645;29;20064;-85
2021/03/14 12:20:51;;;;;;;17.30;11.35;;;;;;;14.89;61.37;98405.75;4916049;29;20028;-85
2021/03/14 12:23:17;;;;;;;18.35;12.05;;;;;;;14.96;61.55;98407.94;4898567;29;20113;-87
2021/03/14 12:25:43;;;;;;;14.23;10.18;;;;;;;14.98;60.90;98391.50;4899029;29;20080;-87
2021/03/14 12:28:09;;;;;;;16.45;13.32;;;;;;;15.03;60.97;98400.19;4898856;29;20068;-86
2021/03/14 12:30:34;;;;;;;14.50;10.60;;;;;;;15.08;60.36;98406.53;4898598;29;20032;-85
2021/03/14 12:32:59;;;;;;;13.98;10.73;;;;;;;15.11;60.75;98406.66;4898472;29;20036;-85
2021/03/14 12:35:25;;;;;;;18.25;11.25;;;;;;;15.13;60.37;98401.72;4898938;29;20032;-84
2021/03/14 12:37:50;;;;;;;20.42;11.88;;;;;;;15.12;60.09;98402.06;4899026;29;20039;-85
2021/03/14 12:40:16;;;;;;;17.00;11.43;;;;;;;15.12;60.33;98389.38;4898626;29;20036;-85
2021/03/14 12:42:41;;;;;;;17.15;11.95;;;;;;;15.15;60.25;98385.28;4899017;29;20032;-84
2021/03/14 12:45:07;;;;;;;14.43;10.02;;;;;;;15.20;59.70;98388.56;4899042;29;20140;-87
2021/03/14 12:47:33;;;;;;;14.18;10.15;;;;;;;15.21;59.34;98383.97;4898221;29;20095;-86
2021/03/14 12:50:01;;;;;;;14.23;10.48;;;;;;;15.20;59.28;98375.09;4915818;29;20032;-85
2021/03/14 12:52:27;;;;;;;15.15;11.13;;;;;;;15.19;59.08;98375.41;4898259;29;20031;-85
2021/03/14 12:54:54;;;;;;;13.52;10.63;;;;;;;15.20;59.26;98364.31;4898732;29;20032;-86
2021/03/14 12:57:19;;;;;;;16.55;11.38;;;;;;;15.24;59.21;98361.00;4898181;29;20036;-85
2021/03/14 12:59:45;;;;;;;17.35;12.35;;;;;;;15.29;59.25;98350.03;4898321;29;20035;-87
2021/03/14 13:02:10;;;;;;;17.08;10.15;;;;;;;15.34;58.79;98363.31;4898061;29;20087;-85
2021/03/14 13:04:36;;;;;;;19.77;12.30;;;;;;;15.41;59.10;98352.81;4898077;29;20028;-85
2021/03/14 13:07:01;;;;;;;16.95;11.68;;;;;;;15.50;58.42;98347.38;4898753;29;20408;-87
2021/03/14 13:09:26;;;;;;;17.83;11.35;;;;;;;15.52;58.39;98339.75;4898324;29;20500;-86
2021/03/14 13:11:55;;;;;;;15.07;11.30;;;;;;;15.58;58.34;98345.75;4898407;29;20031;-85
2021/03/14 13:14:20;;;;;;;20.73;12.75;;;;;;;15.57;57.75;98352.28;4898258;29;20494;-86
2021/03/14 13:16:48;;;;;;;19.80;12.23;;;;;;;15.52;58.21;98337.06;4898522;29;20177;-85
2021/03/14 13:19:14;;;;;;;22.27;14.25;;;;;;;15.49;58.42;98330.44;4898377;29;20074;-87
2021/03/14 13:21:39;;;;;;;20.27;12.68;;;;;;;15.47;57.73;98329.97;4898181;29;20183;-86
2021/03/14 13:24:05;;;;;;;22.45;13.50;;;;;;;15.39;58.23;98320.00;4898295;29;20028;-86
2021/03/14 13:26:30;;;;;;;22.38;13.65;;;;;;;15.42;58.80;98313.22;4898425;29;20095;-86
2021/03/14 13:28:55;;;;;;;18.35;12.77;;;;;;;15.45;58.15;98310.66;4898433;29;20171;-86
2021/03/14 13:31:22;;;;;;;17.85;13.00;;;;;;;15.44;58.13;98308.25;4898094;29;20434;-87
2021/03/14 13:33:48;;;;;;;26.33;14.35;;;;;;;15.47;58.33;98313.78;4898251;29;20028;-86
2021/03/14 13:36:14;;;;;;;23.67;14.23;;;;;;;15.49;57.95;98311.56;4898209;29;20052;-85
2021/03/14 13:38:42;;;;;;;24.10;14.38;;;;;;;15.45;57.68;98305.25;4914830;29;20032;-85
2021/03/14 13:41:08;;;;;;;25.13;14.63;;;;;;;15.44;57.88;98295.59;4897453;29;20506;-86
2021/03/14 13:43:33;;;;;;;19.02;13.20;;;;;;;15.45;57.85;98296.38;4898016;29;20281;-85
2021/03/14 13:46:01;;;;;;;14.68;11.80;;;;;;;15.42;57.67;98287.03;4898038;29;20125;-87
2021/03/14 13:48:26;;;;;;;19.63;14.38;;;;;;;15.40;57.83;98275.78;4897937;29;20103;-85
2021/03/14 13:50:51;;;;;;;17.25;11.48;;;;;;;15.39;57.33;98274.22;4898026;29;20040;-85
2021/03/14 13:53:17;;;;;;;18.92;13.05;;;;;;;15.36;57.49;98278.34;4897430;29;20492;-85
2021/03/14 13:55:43;;;;;;;25.75;14.25;;;;;;;15.37;57.78;98265.69;4914885;29;20068;-87
2021/03/14 13:58:08;;;;;;;19.38;12.20;;;;;;;15.42;57.73;98273.56;4897762;29;20120;-88
2021/03/14 14:00:33;;;;;;;22.95;12.00;;;;;;;15.48;57.61;98268.78;4897728;29;20040;-87
2021/03/14 14:03:00;;;;;;;19.58;13.02;;;;;;;15.52;57.41;98272.41;4897486;29;20029;-85
2021/03/14 14:05:26;;;;;;;19.77;13.18;;;;;;;15.53;57.79;98272.06;4897481;29;20024;-85
2021/03/14 14:07:51;;;;;;;18.50;11.98;;;;;;;15.61;57.69;98256.16;4897730;29;20099;-86
2021/03/14 14:10:18;;;;;;;23.35;13.23;;;;;;;15.64;57.61;98256.28;4897646;29;20126;-88
2021/03/14 14:12:44;;;;;;;20.20;13.52;;;;;;;15.75;58.05;98256.69;4896866;29;20024;-88
2021/03/14 14:15:10;;;;;;;20.27;13.15;;;;;;;15.86;58.43;98245.53;4897324;29;20070;-93
2021/03/14 14:17:36;;;;;;;20.75;13.30;;;;;;;16.02;57.69;98254.59;4898301;29;20420;-83
2021/03/14 14:20:05;;;;;;;18.08;11.60;;;;;;;16.17;56.54;98256.69;4904423;29;20032;-89
2021/03/14 14:22:30;;;;;;;13.80;9.27;;;;;;;16.29;54.43;98253.19;4907965;29;20035;-90
2021/03/14 14:24:56;;;;;;;7.88;7.07;;;;;;;16.41;52.70;98244.34;4901639;29;20069;-90
2021/03/14 14:27:21;;;;;;;8.80;6.75;;;;;;;16.51;50.71;98243.13;4897700;29;20024;-86
2021/03/14 14:29:47;;;;;;;8.82;7.63;;;;;;;16.57;50.31;98246.41;4900402;29;20067;-86
2021/03/14 14:32:13;;;;;;;10.63;8.18;;;;;;;16.62;49.55;98238.91;4900416;29;20027;-88
2021/03/14 14:34:39;;;;;;;16.80;11.02;;;;;;;16.67;49.60;98237.09;4899959;29;20408;-84
2021/03/14 14:37:04;;;;;;;10.73;8.00;;;;;;;16.67;49.18;98229.78;4900141;29;20031;-79
2021/03/14 14:39:30;;;;;;;12.50;7.63;;;;;;;16.65;49.15;98230.13;4899553;29;20042;-80
2021/03/14 14:41:56;;;;;;;11.55;8.68;;;;;;;16.67;49.35;98227.06;4916768;29;20504;-80
2021/03/14 14:44:21;;;;;;;15.20;9.35;;;;;;;16.69;49.26;98227.53;4900949;29;20439;-89
2021/03/14 14:46:47;;;;;;;18.95;11.20;;;;;;;16.70;49.00;98221.00;4907794;29;20060;-93
2021/03/14 14:49:14;;;;;;;12.63;8.68;;;;;;;16.66;48.77;98212.00;4917099;29;20048;-87
2021/03/14 14:51:39;;;;;;;14.20;8.95;;;;;;;16.67;48.48;98215.50;4899968;29;20571;-90
2021/03/14 14:54:05;;;;;;;16.90;10.38;;;;;;;16.66;49.33;98214.69;4899702;29;20051;-83
2021/03/14 14:56:31;;;;;;;12.77;8.70;;;;;;;16.67;49.23;98207.41;4900472;29;20066;-89
2021/03/14 14:58:57;;;;;;;10.25;7.45;;;;;;;16.65;48.88;98210.44;4904052;29;20123;-91
2021/03/14 15:01:22;;;;;;;8.77;6.85;;;;;;;16.64;48.76;98206.16;4901656;29;20039;-91
2021/03/14 15:03:48;;;;;;;8.82;7.93;;;;;;;16.61;48.39;98204.94;4901706;29;20412;-92
2021/03/14 15:06:14;;;;;;;11.18;7.35;;;;;;;16.58;48.59;98215.59;4902071;29;20453;-91
2021/03/14 15:08:39;;;;;;;10.27;8.02;;;;;;;16.55;49.04;98216.25;4903188;29;20473;-92
2021/03/14 15:11:05;;;;;;;11.43;7.28;;;;;;;16.52;48.55;98212.34;4901748;29;20031;-91
2021/03/14 15:13:30;;;;;;;11.23;6.70;;;;;;;16.49;48.85;98210.31;4903194;29;20490;-91
2021/03/14 15:15:56;;;;;;;12.70;7.78;;;;;;;16.48;49.53;98216.84;4902404;29;20067;-91
2021/03/14 15:18:21;;;;;;;10.65;8.50;;;;;;;16.42;49.16;98207.38;4901385;29;20420;-91
2021/03/14 15:20:47;;;;;;;10.57;8.10;;;;;;;16.36;48.95;98206.81;4901688;29;20032;-92
2021/03/14 15:23:13;;;;;;;12.00;8.40;;;;;;;16.33;49.55;98208.25;4905254;29;20036;-93
2021/03/14 15:25:39;;;;;;;15.75;9.95;;;;;;;16.30;49.70;98203.53;4911754;29;20127;-90
2021/03/14 15:28:05;;;;;;;24.30;12.88;;;;;;;16.25;50.09;98198.34;4901389;29;20028;-93
2021/03/14 15:30:30;;;;;;;14.23;8.57;;;;;;;16.20;49.76;98195.88;4902089;29;20484;-91
2021/03/14 15:32:56;;;;;;;12.82;9.40;;;;;;;16.16;50.13;98197.63;4901044;29;20600;-92
2021/03/14 15:35:22;;;;;;;15.98;9.80;;;;;;;16.12;50.21;98202.91;4901644;29;20032;-93
2021/03/14 15:37:47;;;;;;;13.20;10.23;;;;;;;16.07;50.33;98203.13;4901935;29;20548;-92
2021/03/14 15:40:13;;;;;;;10.82;7.88;;;;;;;16.05;50.34;98188.41;4901033;29;20031;-91
2021/03/14 15:42:39;;;;;;;16.33;8.40;;;;;;;15.96;50.51;98197.38;4901458;29;20456;-93
2021/03/14 15:45:05;;;;;;;12.90;8.88;;;;;;;15.92;51.07;98193.00;4902034;29;20032;-93
2021/03/14 15:47:31;;;;;;;11.73;9.82;;;;;;;15.84;50.84;98192.75;4901286;29;20028;-91
2021/03/14 15:49:58;;;;;;;13.63;9.05;;;;;;;15.78;51.08;98185.16;4901977;29;20484;-91
2021/03/14 15:52:24;;;;;;;10.98;9.18;;;;;;;15.71;51.50;98184.91;4900723;29;20488;-93
2021/03/14 15:54:49;;;;;;;10.25;8.43;;;;;;;15.63;51.86;98189.25;4901719;29;20064;-92
2021/03/14 15:57:15;;;;;;;17.25;9.05;;;;;;;15.57;52.02;98183.25;4900323;29;20432;-92
2021/03/14 15:59:40;;;;;;;15.73;9.70;;;;;;;15.51;51.94;98180.00;4904986;29;20024;-92
2021/03/14 16:02:06;;;;;;;10.82;8.48;;;;;;;15.46;52.34;98182.88;4897683;29;20420;-88
2021/03/14 16:04:34;;;;;;;10.13;7.90;;;;;;;15.36;52.64;98185.97;4904653;29;20040;-84
2021/03/14 16:06:59;;;;;;;10.40;8.23;;;;;;;15.32;52.99;98175.06;4900867;29;20412;-89
2021/03/14 16:09:25;;;;;;;10.75;8.27;;;;;;;15.26;53.28;98189.84;4899714;29;20028;-88
2021/03/14 16:11:50;;;;;;;10.60;8.50;;;;;;;15.22;53.12;98199.69;4899633;29;20123;-89
2021/03/14 16:14:16;;;;;;;9.88;8.50;;;;;;;15.15;53.51;98185.97;4899430;29;20035;-89
2021/03/14 16:16:41;;;;;;;12.73;9.90;;;;;;;15.10;53.58;98184.25;4901111;29;20036;-88
2021/03/14 16:19:07;;;;;;;13.48;9.38;;;;;;;15.03;53.61;98192.84;4899523;29;20186;-88
2021/03/14 16:21:32;;;;;;;13.00;9.85;;;;;;;14.95;53.92;98188.31;4899271;29;20071;-89
2021/03/14 16:23:57;;;;;;;16.42;10.50;;;;;;;14.92;54.03;98190.88;4899327;29;20119;-88
2021/03/14 16:26:23;;;;;;;11.20;9.57;;;;;;;14.87;54.34;98191.84;4899322;29;20028;-89
2021/03/14 16:28:50;;;;;;;12.68;9.45;;;;;;;14.82;54.41;98186.66;4899237;29;20024;-90
2021/03/14 16:31:16;;;;;;;13.02;8.75;;;;;;;14.73;54.75;98183.97;4899177;29;20199;-88
2021/03/14 16:33:42;;;;;;;13.68;9.82;;;;;;;14.68;55.11;98186.88;4899082;29;20119;-88
2021/03/14 16:36:08;;;;;;;16.48;11.40;;;;;;;14.64;55.12;98181.31;4899375;29;20063;-90
2021/03/14 16:38:34;;;;;;;25.55;15.93;;;;;;;14.59;55.33;98184.19;4899233;29;20415;-90
2021/03/14 16:41:00;;;;;;;19.42;11.02;;;;;;;14.53;55.77;98191.63;4899079;29;20036;-88
2021/03/14 16:43:26;;;;;;;17.10;11.60;;;;;;;14.46;55.69;98180.59;4899264;29;20492;-90
2021/03/14 16:45:57;;;;;;;17.00;10.48;;;;;;;14.41;56.01;98192.34;4899152;29;20042;-89
2021/03/14 16:48:26;;;;;;;20.92;12.23;;;;;;;14.34;56.44;98192.03;4898935;29;20035;-90
2021/03/14 16:50:52;;;;;;;23.40;13.02;;;;;;;14.30;56.13;98183.03;4899041;29;20103;-90
2021/03/14 16:53:18;;;;;;;14.48;10.02;;;;;;;14.23;56.41;98193.47;4898572;29;20516;-89
2021/03/14 16:55:48;;;;;;;14.05;10.93;;;;;;;14.16;56.56;98187.81;4898902;29;20055;-89
2021/03/14 16:58:14;;;;;;;16.55;11.00;;;;;;;14.12;56.50;98184.19;4899041;29;20127;-90
2021/03/14 17:00:40;;;;;;;19.60;11.77;;;;;;;14.08;56.78;98184.03;4898865;29;20062;-92
2021/03/14 17:03:06;;;;;;;16.42;11.43;;;;;;;13.96;56.93;98181.22;4899182;29;20056;-91
2021/03/14 17:05:33;;;;;;;15.45;11.32;;;;;;;13.95;57.25;98182.34;4899078;29;20039;-92
2021/03/14 17:07:59;;;;;;;12.95;9.93;;;;;;;13.84;57.49;98174.63;4900400;29;20035;-91
2021/03/14 17:10:25;;;;;;;13.00;9.75;;;;;;;13.85;57.69;98186.91;4903561;29;20514;-85
2021/03/14 17:12:50;;;;;;;13.65;9.70;;;;;;;13.79;58.09;98177.44;4899351;29;20032;-87
2021/03/14 17:15:16;;;;;;;12.15;9.20;;;;;;;13.76;58.09;98189.63;4911220;29;20040;-84
2021/03/14 17:17:41;;;;;;;14.68;9.65;;;;;;;13.70;58.39;98179.38;4894081;29;20040;-86
2021/03/14 17:20:08;;;;;;;17.45;10.48;;;;;;;13.66;58.69;98184.59;4894267;29;20034;-85
2021/03/14 17:22:33;;;;;;;14.68;10.48;;;;;;;13.62;58.86;98194.38;4891088;29;20428;-84
2021/03/14 17:24:59;;;;;;;16.95;11.00;;;;;;;13.58;58.94;98191.53;4890521;29;20035;-84
2021/03/14 17:27:25;;;;;;;18.10;12.18;;;;;;;13.55;59.14;98192.16;4892852;29;20035;-80
2021/03/14 17:29:52;;;;;;;14.50;10.30;;;;;;;13.50;59.03;98186.16;4895413;29;20036;-90
2021/03/14 17:32:18;;;;;;;14.10;10.30;;;;;;;13.45;59.54;98189.78;4895137;29;20492;-78
2021/03/14 17:34:44;;;;;;;13.75;9.25;;;;;;;13.42;59.57;98190.44;4894882;29;20031;-78
2021/03/14 17:37:10;;;;;;;14.75;10.88;;;;;;;13.37;60.08;98185.97;4905409;29;21505;-77
2021/03/14 17:39:35;;;;;;;15.10;10.38;;;;;;;13.30;60.36;98180.28;4898830;29;20028;-76
2021/03/14 17:42:03;;;;;;;16.65;11.23;;;;;;;13.29;60.85;98184.06;4903314;29;20567;-77
2021/03/14 17:44:28;;;;;;;12.88;10.25;;;;;;;13.25;61.27;98191.19;4889968;29;20032;-78
2021/03/14 17:46:56;;;;;;;15.40;10.43;;;;;;;13.21;61.11;98190.25;4887601;29;20067;-78
2021/03/14 17:49:22;;;;;;;12.73;9.68;;;;;;;13.14;61.66;98182.63;4912986;29;20127;-78
2021/03/14 17:51:49;;;;;;;16.02;9.55;;;;;;;13.11;61.72;98186.75;4909260;29;20580;-78
2021/03/14 17:54:14;;;;;;;22.67;12.45;;;;;;;13.09;62.15;98182.78;4913787;29;20131;-78
2021/03/14 17:56:40;;;;;;;22.27;13.50;;;;;;;13.05;62.48;98182.63;4890284;29;20135;-78
2021/03/14 17:59:05;;;;;;;17.88;12.27;;;;;;;13.01;62.81;98175.50;4900131;29;20035;-78
2021/03/14 18:01:31;;;;;;;21.50;12.60;;;;;;;12.97;63.30;98178.84;4880896;29;20048;-77
2021/03/14 18:03:57;;;;;;;19.70;13.68;;;;;;;12.95;63.62;98175.66;4882953;29;20382;-77
2021/03/14 18:06:23;;;;;;;24.55;16.00;;;;;;;12.91;63.54;98165.88;4905698;29;20020;-76
2021/03/14 18:08:49;;;;;;;32.33;19.83;;;;;;;12.88;63.52;98167.28;4892980;29;20039;-77
2021/03/14 18:11:14;;;;;;;21.23;13.80;;;;;;;12.86;63.56;98174.84;4898743;29;20024;-78
2021/03/14 18:13:40;;;;;;;20.88;14.75;;;;;;;12.83;63.88;98167.44;4911051;29;20489;-77
2021/03/14 18:16:05;;;;;;;19.17;13.60;;;;;;;12.80;63.64;98171.53;4894885;29;20028;-78
2021/03/14 18:18:31;;;;;;;22.20;15.85;;;;;;;12.79;64.05;98166.47;4898411;29;20035;-79
2021/03/14 18:20:56;;;;;;;23.83;14.88;;;;;;;12.77;63.98;98169.47;4878516;29;20031;-79
2021/03/14 18:23:22;;;;;;;21.65;14.90;;;;;;;12.75;64.56;98171.66;4878092;29;20037;-80
2021/03/14 18:25:47;;;;;;;16.08;11.98;;;;;;;12.72;64.68;98174.16;4891329;29;20028;-77
2021/03/14 18:28:13;;;;;;;17.20;11.70;;;;;;;12.66;64.99;98165.50;4898361;29;20115;-77
2021/03/14 18:30:38;;;;;;;17.85;11.82;;;;;;;12.65;64.85;98162.00;4878276;29;20032;-78
2021/03/14 18:33:04;;;;;;;15.93;10.43;;;;;;;12.65;65.07;98162.00;4894820;29;20136;-76
2021/03/14 18:35:30;;;;;;;17.48;12.57;;;;;;;12.60;65.34;98156.78;4905495;29;20020;-79
2021/03/14 18:37:55;;;;;;;15.98;11.57;;;;;;;12.57;65.71;98153.94;4878305;29;20025;-78
2021/03/14 18:40:20;;;;;;;14.07;11.25;;;;;;;12.56;65.45;98158.53;4894930;29;20380;-77
2021/03/14 18:42:46;;;;;;;16.17;12.07;;;;;;;12.54;65.18;98158.03;4878270;29;20029;-77
2021/03/14 18:45:12;;;;;;;18.38;13.77;;;;;;;12.49;65.47;98148.22;4878239;29;20432;-77
2021/03/14 18:47:39;;;;;;;20.50;13.32;;;;;;;12.47;65.89;98147.78;4892357;29;20036;-77
2021/03/14 18:50:10;;;;;;;20.50;12.93;;;;;;;12.43;66.04;98146.78;4878234;29;20397;-77